Time;durP1;ratioP1;P1;durP2;ratioP2;P2;SDS_P1;SDS_P2;PMS_P1;PMS_P2;Temp;Humidity;BMP_temperature;BMP_pressure;BME280_temperature;BME280_humidity;BME280_pressure;Samples;Min_cycle;Max_cycle;Signal;HPM_P1;HPM_P2
2023/12/15 00:01:22;;;;;;;7.50;6.25;;;;;;;-0.35;100.00;98115.38;1223873;75;2920757;-70
2023/12/15 00:03:55;;;;;;;9.70;8.45;;;;;;;-0.56;100.00;98120.84;1224134;75;2920132;-66
2023/12/15 00:06:28;;;;;;;9.65;8.30;;;;;;;-0.52;100.00;98130.44;1223915;75;2923028;-70
2023/12/15 00:09:01;;;;;;;10.95;8.60;;;;;;;-0.51;100.00;98134.66;1223175;75;2925332;-71
2023/12/15 00:11:36;;;;;;;10.70;7.30;;;;;;;-0.37;100.00;98141.16;1223975;75;2916980;-70
2023/12/15 00:14:09;;;;;;;9.25;7.70;;;;;;;-0.32;100.00;98154.19;1223509;75;2903407;-69
2023/12/15 00:16:42;;;;;;;12.80;9.85;;;;;;;-0.45;100.00;98154.63;1223638;75;2932032;-69
2023/12/15 00:19:15;;;;;;;12.05;9.90;;;;;;;-0.48;100.00;98165.38;1224165;75;2923563;-67
2023/12/15 00:21:48;;;;;;;11.75;9.65;;;;;;;-0.41;100.00;98156.53;1223636;75;2937896;-69
2023/12/15 00:24:20;;;;;;;11.10;8.95;;;;;;;-0.41;100.00;98168.03;1223044;75;2922216;-71
2023/12/15 00:26:58;;;;;;;11.85;10.05;;;;;;;-0.46;100.00;98166.53;1224466;75;2925318;-70
2023/12/15 00:29:30;;;;;;;11.30;9.90;;;;;;;-0.28;100.00;98174.53;1224027;75;2920587;-68
2023/12/15 00:32:03;;;;;;;9.40;8.00;;;;;;;-0.12;100.00;98176.78;1223449;75;2918850;-69
2023/12/15 00:34:36;;;;;;;8.40;7.25;;;;;;;-0.04;100.00;98177.53;1223117;75;2920426;-71
2023/12/15 00:37:10;;;;;;;7.05;6.35;;;;;;;0.05;100.00;98179.78;1223523;75;2924779;-69
2023/12/15 00:39:42;;;;;;;7.00;6.30;;;;;;;0.01;100.00;98173.66;1224078;75;2917439;-67
2023/12/15 00:42:18;;;;;;;6.75;5.80;;;;;;;0.08;100.00;98168.25;1223663;75;2920874;-68
2023/12/15 00:44:51;;;;;;;6.95;6.25;;;;;;;-0.02;100.00;98180.59;1222290;75;2924884;-70
2023/12/15 00:47:24;;;;;;;9.05;7.70;;;;;;;-0.20;100.00;98196.03;1224306;75;2925367;-68
2023/12/15 00:49:57;;;;;;;11.10;9.30;;;;;;;-0.16;100.00;98194.09;1223921;75;2920061;-69
2023/12/15 00:52:30;;;;;;;9.30;8.15;;;;;;;0.02;100.00;98188.63;1222947;75;2929148;-69
2023/12/15 00:55:03;;;;;;;9.60;8.20;;;;;;;-0.18;100.00;98197.19;1223737;75;2923788;-67
2023/12/15 00:57:38;;;;;;;11.45;9.75;;;;;;;-0.21;100.00;98189.91;1224114;75;2918255;-68
2023/12/15 01:00:14;;;;;;;10.85;7.75;;;;;;;-0.16;100.00;98194.09;1223719;75;2909851;-70
2023/12/15 01:02:46;;;;;;;8.35;7.45;;;;;;;0.07;100.00;98197.06;1224004;75;2923531;-68
2023/12/15 01:05:19;;;;;;;10.40;8.95;;;;;;;-0.21;100.00;98200.66;1223747;75;2921317;-68
2023/12/15 01:07:52;;;;;;;9.50;8.05;;;;;;;0.04;100.00;98199.78;1224305;75;2922314;-67
2023/12/15 01:10:25;;;;;;;12.85;10.50;;;;;;;-0.19;100.00;98202.94;1224292;75;2920735;-68
2023/12/15 01:13:00;;;;;;;12.95;10.30;;;;;;;0.11;100.00;98207.84;1223694;75;2942929;-70
2023/12/15 01:15:34;;;;;;;9.95;8.20;;;;;;;0.14;100.00;98207.03;1225199;75;2927624;-69
2023/12/15 01:18:07;;;;;;;7.20;6.45;;;;;;;0.16;100.00;98208.19;1224501;75;2917077;-70
2023/12/15 01:20:39;;;;;;;7.50;6.30;;;;;;;0.05;100.00;98210.19;1223174;75;2923589;-66
2023/12/15 01:23:13;;;;;;;9.95;7.60;;;;;;;-0.01;100.00;98222.50;1223077;75;2926304;-68
2023/12/15 01:25:45;;;;;;;8.25;6.80;;;;;;;0.20;100.00;98218.94;1224055;75;2917179;-68
2023/12/15 01:28:21;;;;;;;7.50;5.90;;;;;;;0.28;100.00;98225.81;1224409;75;2927379;-67
2023/12/15 01:30:54;;;;;;;8.35;6.05;;;;;;;0.13;100.00;98221.66;1223708;75;2920853;-70
2023/12/15 01:33:27;;;;;;;6.30;5.35;;;;;;;0.27;100.00;98223.53;1224579;75;2916431;-70
2023/12/15 01:35:59;;;;;;;5.75;4.95;;;;;;;0.27;100.00;98228.91;1223267;75;2928679;-70
2023/12/15 01:38:32;;;;;;;4.95;4.30;;;;;;;0.32;100.00;98217.75;1223849;75;2926448;-68
2023/12/15 01:41:05;;;;;;;3.80;3.30;;;;;;;0.30;100.00;98217.34;1224497;75;2919657;-70
2023/12/15 01:43:41;;;;;;;4.80;3.75;;;;;;;0.28;100.00;98212.34;1223608;75;2923610;-70
2023/12/15 01:46:13;;;;;;;4.90;3.80;;;;;;;0.37;100.00;98228.84;1224654;75;2919535;-66
2023/12/15 01:48:46;;;;;;;3.80;3.25;;;;;;;0.37;100.00;98236.94;1224261;75;2922906;-70
2023/12/15 01:51:20;;;;;;;7.35;5.60;;;;;;;0.28;100.00;98222.38;1223895;75;2922156;-67
2023/12/15 01:53:53;;;;;;;7.40;4.85;;;;;;;0.30;100.00;98230.81;1223448;75;2921413;-72
2023/12/15 01:56:26;;;;;;;6.75;5.60;;;;;;;0.03;100.00;98238.63;1223953;75;2921791;-69
2023/12/15 01:59:02;;;;;;;8.00;5.80;;;;;;;-0.01;100.00;98235.94;1222232;75;2924102;-71
2023/12/15 02:01:35;;;;;;;8.10;6.30;;;;;;;0.05;100.00;98241.69;1224660;75;2924195;-67
2023/12/15 02:04:08;;;;;;;7.45;5.85;;;;;;;-0.01;100.00;98244.78;1222004;75;2921223;-67
2023/12/15 02:06:41;;;;;;;8.90;5.95;;;;;;;0.07;100.00;98247.44;1222371;75;2938359;-70
2023/12/15 02:09:14;;;;;;;8.50;6.25;;;;;;;0.12;100.00;98245.13;1224509;75;2920134;-66
2023/12/15 02:11:48;;;;;;;7.45;6.40;;;;;;;-0.04;100.00;98250.94;1224400;75;2921239;-69
2023/12/15 02:14:23;;;;;;;12.15;9.30;;;;;;;-0.16;100.00;98248.69;1222671;75;2929348;-70
2023/12/15 02:16:56;;;;;;;11.20;8.70;;;;;;;0.04;100.00;98249.00;1223369;75;2924610;-69
2023/12/15 02:19:29;;;;;;;9.45;7.85;;;;;;;0.19;100.00;98263.16;1223849;75;2927475;-70
2023/12/15 02:22:02;;;;;;;7.40;6.30;;;;;;;0.27;100.00;98272.75;1223499;75;2925242;-68
2023/12/15 02:24:37;;;;;;;7.20;6.45;;;;;;;0.20;100.00;98275.50;1224050;75;2916083;-67
2023/12/15 02:27:10;;;;;;;6.20;5.55;;;;;;;0.35;100.00;98276.19;1223047;75;2930344;-68
2023/12/15 02:29:43;;;;;;;7.25;5.90;;;;;;;0.19;100.00;98277.41;1223011;75;2917758;-69
2023/12/15 02:32:16;;;;;;;7.55;6.50;;;;;;;0.11;100.00;98278.59;1223425;75;2918972;-68
2023/12/15 02:34:49;;;;;;;7.15;6.45;;;;;;;0.13;100.00;98272.81;1223343;75;2919261;-67
2023/12/15 02:37:21;;;;;;;7.20;6.50;;;;;;;0.18;100.00;98277.78;1223699;75;2920938;-70
2023/12/15 02:39:57;;;;;;;8.45;6.85;;;;;;;0.27;100.00;98274.69;1222440;75;2922247;-70
2023/12/15 02:42:30;;;;;;;6.30;5.50;;;;;;;0.31;100.00;98289.66;1223982;75;2921690;-68
2023/12/15 02:45:05;;;;;;;7.10;5.75;;;;;;;0.15;100.00;98290.13;1223729;75;2918688;-69
2023/12/15 02:47:37;;;;;;;7.20;6.40;;;;;;;0.03;100.00;98295.94;1224418;75;2924803;-69
2023/12/15 02:50:14;;;;;;;8.35;7.45;;;;;;;-0.04;100.00;98294.00;1223880;75;2930289;-67
2023/12/15 02:52:47;;;;;;;9.05;8.10;;;;;;;-0.04;100.00;98293.25;1222834;75;2925710;-70
2023/12/15 02:55:22;;;;;;;9.40;7.95;;;;;;;0.17;100.00;98285.13;1224551;75;2919378;-70
2023/12/15 02:57:55;;;;;;;7.10;6.20;;;;;;;0.25;100.00;98299.31;1224148;75;2916265;-69
2023/12/15 03:00:28;;;;;;;6.25;5.55;;;;;;;0.26;100.00;98292.00;1212254;75;3824631;-71
2023/12/15 03:03:01;;;;;;;6.85;6.15;;;;;;;0.22;100.00;98302.78;1223315;75;2924652;-70
2023/12/15 03:05:35;;;;;;;6.10;5.50;;;;;;;0.23;100.00;98315.09;1223684;75;2916860;-67
2023/12/15 03:08:07;;;;;;;5.85;5.15;;;;;;;0.28;100.00;98316.59;1223492;75;2921855;-68
2023/12/15 03:10:43;;;;;;;5.95;4.60;;;;;;;0.30;100.00;98312.38;1223460;75;2919214;-67
2023/12/15 03:13:16;;;;;;;5.40;4.80;;;;;;;0.28;100.00;98316.59;1223101;75;2923606;-67
2023/12/15 03:15:48;;;;;;;5.60;5.00;;;;;;;0.35;100.00;98306.56;1223551;75;2930967;-68
2023/12/15 03:18:21;;;;;;;5.40;4.90;;;;;;;0.31;100.00;98316.59;1223754;75;2920213;-71
2023/12/15 03:20:55;;;;;;;4.80;4.30;;;;;;;0.41;100.00;98318.50;1223761;75;2926241;-67
2023/12/15 03:23:27;;;;;;;4.55;4.00;;;;;;;0.39;100.00;98320.03;1222704;75;2923414;-68
2023/12/15 03:26:03;;;;;;;4.90;4.40;;;;;;;0.34;100.00;98315.81;1221946;75;2927135;-68
2023/12/15 03:28:36;;;;;;;6.15;5.15;;;;;;;0.34;100.00;98306.97;1222660;75;2951635;-67
2023/12/15 03:31:09;;;;;;;5.25;4.75;;;;;;;0.41;100.00;98315.78;1223836;75;2923453;-68
2023/12/15 03:33:42;;;;;;;7.05;5.65;;;;;;;0.34;100.00;98305.06;1222934;75;2932953;-66
2023/12/15 03:36:15;;;;;;;5.85;5.25;;;;;;;0.24;100.00;98323.91;1223236;75;2920713;-68
2023/12/15 03:38:48;;;;;;;7.30;6.30;;;;;;;0.10;100.00;98322.81;1223401;75;2922648;-69
2023/12/15 03:41:23;;;;;;;6.40;5.40;;;;;;;0.19;100.00;98333.97;1219880;75;3047967;-67
2023/12/15 03:43:56;;;;;;;6.45;5.60;;;;;;;-0.05;100.00;98338.25;1223248;75;2924538;-67
2023/12/15 03:46:29;;;;;;;7.00;5.20;;;;;;;0.10;100.00;98347.06;1223295;75;2928742;-68
2023/12/15 03:49:02;;;;;;;6.75;5.00;;;;;;;-0.02;100.00;98356.31;1223774;75;2921296;-67
2023/12/15 03:51:36;;;;;;;6.25;5.20;;;;;;;0.04;100.00;98364.75;1223983;75;2928880;-69
2023/12/15 03:54:09;;;;;;;8.05;6.05;;;;;;;0.03;100.00;98362.47;1222426;75;2927565;-69
2023/12/15 03:56:44;;;;;;;6.30;5.55;;;;;;;0.07;100.00;98363.97;1223135;75;2929016;-71
2023/12/15 03:59:17;;;;;;;6.55;5.40;;;;;;;0.27;100.00;98372.41;1223167;75;2922944;-68
2023/12/15 04:01:50;;;;;;;5.90;4.60;;;;;;;0.15;100.00;98364.72;1223808;75;2922846;-70
2023/12/15 04:04:23;;;;;;;5.50;4.75;;;;;;;0.21;100.00;98369.31;1223344;75;2929793;-68
2023/12/15 04:06:56;;;;;;;4.40;4.00;;;;;;;0.21;100.00;98369.31;1223703;75;2925623;-66
2023/12/15 04:09:29;;;;;;;4.15;3.60;;;;;;;0.22;100.00;98367.41;1223407;75;2930926;-70
2023/12/15 04:12:04;;;;;;;4.45;3.40;;;;;;;0.17;100.00;98368.56;1221896;75;2925371;-69
2023/12/15 04:14:37;;;;;;;3.65;3.25;;;;;;;0.10;100.00;98365.91;1223355;75;2924384;-68
2023/12/15 04:17:10;;;;;;;3.20;2.80;;;;;;;0.06;100.00;98369.75;1222614;75;2925293;-68
2023/12/15 04:19:43;;;;;;;2.60;2.40;;;;;;;0.09;100.00;98379.72;1223154;75;2924542;-71
2023/12/15 04:22:16;;;;;;;3.45;2.65;;;;;;;-0.10;100.00;98383.59;1222295;75;2942961;-69
2023/12/15 04:24:49;;;;;;;4.35;3.50;;;;;;;-0.08;100.00;98395.50;1222330;75;2921348;-68
2023/12/15 04:27:24;;;;;;;3.60;2.75;;;;;;;-0.10;100.00;98391.66;1223835;75;2924290;-70
2023/12/15 04:29:57;;;;;;;4.15;3.55;;;;;;;-0.40;100.00;98398.22;1221858;75;2928087;-68
2023/12/15 04:32:29;;;;;;;5.95;4.00;;;;;;;-0.48;100.00;98407.41;1221984;75;2926319;-71
2023/12/15 04:35:02;;;;;;;4.75;3.45;;;;;;;-0.37;100.00;98418.22;1223291;75;2919937;-70
2023/12/15 04:37:34;;;;;;;4.85;3.75;;;;;;;-0.36;100.00;98417.03;1223144;75;2921486;-67
2023/12/15 04:40:08;;;;;;;4.75;3.90;;;;;;;-0.25;100.00;98433.97;1223127;75;2930692;-70
2023/12/15 04:42:43;;;;;;;4.85;3.50;;;;;;;-0.10;100.00;98430.13;1223502;75;2926550;-71
2023/12/15 04:45:16;;;;;;;4.40;3.50;;;;;;;-0.19;100.00;98437.03;1224137;75;2930920;-67
2023/12/15 04:47:49;;;;;;;3.60;3.20;;;;;;;-0.27;100.00;98430.88;1224206;75;2921521;-66
2023/12/15 04:50:22;;;;;;;3.80;2.65;;;;;;;-0.26;100.00;98432.44;1223486;75;2924863;-68
2023/12/15 04:52:55;;;;;;;3.00;2.70;;;;;;;-0.26;100.00;98445.88;1222644;75;2921410;-68
2023/12/15 04:55:27;;;;;;;3.20;2.60;;;;;;;-0.29;100.00;98444.75;1224757;75;2926737;-68
2023/12/15 04:58:03;;;;;;;4.60;3.30;;;;;;;-0.58;100.00;98472.72;1224558;75;2924729;-69
2023/12/15 05:00:35;;;;;;;4.85;3.95;;;;;;;-0.55;100.00;98462.00;1222769;75;2926982;-72
2023/12/15 05:03:08;;;;;;;5.60;3.85;;;;;;;-0.51;100.00;98475.44;1223042;75;2938027;-72
2023/12/15 05:05:43;;;;;;;5.65;4.35;;;;;;;-0.59;100.00;98477.34;1223143;75;2926854;-67
2023/12/15 05:08:16;;;;;;;5.40;3.90;;;;;;;-0.41;100.00;98485.44;1223563;75;2932395;-68
2023/12/15 05:10:48;;;;;;;4.25;3.70;;;;;;;-0.29;100.00;98493.16;1222362;75;2921503;-72
2023/12/15 05:13:24;;;;;;;4.90;3.75;;;;;;;-0.30;100.00;98490.84;1223144;68;2920762;-70
2023/12/15 05:15:56;;;;;;;5.40;3.55;;;;;;;-0.18;100.00;98482.41;1224182;75;2922195;-69
2023/12/15 05:18:29;;;;;;;4.20;3.75;;;;;;;-0.06;100.00;98483.94;1222976;75;2924676;-67
2023/12/15 05:21:02;;;;;;;5.05;3.90;;;;;;;-0.12;100.00;98483.56;1222604;75;2956454;-70
2023/12/15 05:23:34;;;;;;;4.60;3.65;;;;;;;-0.26;100.00;98488.94;1223798;75;2926053;-67
2023/12/15 05:26:08;;;;;;;5.35;3.75;;;;;;;-0.12;100.00;98486.25;1220639;75;3033245;-69
2023/12/15 05:28:44;;;;;;;8.20;5.80;;;;;;;-0.15;100.00;98476.25;1222467;75;2922538;-66
2023/12/15 05:31:16;;;;;;;7.50;5.50;;;;;;;-0.13;100.00;98479.31;1222514;75;2930416;-67
2023/12/15 05:33:49;;;;;;;8.45;5.50;;;;;;;-0.20;100.00;98481.25;1221656;75;2912786;-68
2023/12/15 05:36:22;;;;;;;5.60;4.50;;;;;;;-0.24;100.00;98479.34;1223949;75;2919934;-68
2023/12/15 05:38:55;;;;;;;6.80;5.20;;;;;;;-0.28;100.00;98483.94;1224218;75;2922395;-69
2023/12/15 05:41:28;;;;;;;6.35;4.60;;;;;;;-0.25;100.00;98477.78;1223721;75;2931386;-69
2023/12/15 05:44:03;;;;;;;5.25;4.10;;;;;;;-0.19;100.00;98480.88;1222609;75;2933306;-70
2023/12/15 05:46:36;;;;;;;5.65;4.30;;;;;;;-0.22;100.00;98481.63;1222647;75;2924950;-70
2023/12/15 05:49:09;;;;;;;6.85;5.10;;;;;;;-0.31;100.00;98497.38;1223652;75;2921611;-70
2023/12/15 05:51:42;;;;;;;9.05;5.80;;;;;;;-0.30;100.00;98523.13;1223451;75;2922833;-70
2023/12/15 05:54:15;;;;;;;8.25;6.15;;;;;;;-0.30;100.00;98525.81;1222956;75;2923877;-67
2023/12/15 05:56:48;;;;;;;6.85;5.40;;;;;;;-0.30;100.00;98529.28;1223180;75;2925425;-69
2023/12/15 05:59:23;;;;;;;6.15;5.20;;;;;;;-0.23;100.00;98533.91;1221991;75;2924722;-69
2023/12/15 06:01:55;;;;;;;6.75;4.95;;;;;;;-0.24;100.00;98545.81;1223613;75;2926807;-70
2023/12/15 06:04:28;;;;;;;7.40;6.35;;;;;;;-0.35;100.00;98536.97;1222459;75;2931486;-70
2023/12/15 06:07:01;;;;;;;8.30;6.90;;;;;;;-0.41;100.00;98547.31;1223750;75;2922198;-67
2023/12/15 06:09:33;;;;;;;8.45;6.55;;;;;;;-0.27;100.00;98549.25;1224401;75;2918670;-70
2023/12/15 06:12:07;;;;;;;6.85;5.95;;;;;;;-0.30;100.00;98545.41;1218518;75;3102128;-72
2023/12/15 06:14:42;;;;;;;5.85;5.10;;;;;;;-0.30;100.00;98556.19;1218953;75;3099817;-68
2023/12/15 06:17:15;;;;;;;7.20;4.90;;;;;;;-0.56;100.00;98559.16;1223899;75;2919252;-69
2023/12/15 06:19:48;;;;;;;9.70;6.95;;;;;;;-0.76;100.00;98572.91;1222273;75;2925547;-69
2023/12/15 06:22:20;;;;;;;9.80;8.30;;;;;;;-0.72;100.00;98568.34;1222791;75;2922626;-69
2023/12/15 06:24:53;;;;;;;9.25;7.55;;;;;;;-0.69;100.00;98572.94;1223636;75;2921646;-67
2023/12/15 06:27:25;;;;;;;7.30;6.50;;;;;;;-0.53;100.00;98580.72;1223774;75;2925756;-69
2023/12/15 06:30:00;;;;;;;8.00;7.10;;;;;;;-0.59;100.00;98581.44;1223034;75;2949066;-69
2023/12/15 06:32:33;;;;;;;8.10;6.45;;;;;;;-0.46;100.00;98580.75;1221515;75;2924996;-69
2023/12/15 06:35:06;;;;;;;6.05;5.45;;;;;;;-0.46;100.00;98583.44;1223605;75;2923415;-73
2023/12/15 06:37:39;;;;;;;5.20;4.40;;;;;;;-0.45;100.00;98582.28;1223034;75;2901279;-70
2023/12/15 06:40:12;;;;;;;13.10;8.45;;;;;;;-0.70;100.00;98579.50;1222515;75;2926212;-68
2023/12/15 06:42:45;;;;;;;12.80;7.70;;;;;;;-0.52;100.00;98586.84;1222972;75;2919527;-69
2023/12/15 06:45:20;;;;;;;11.70;8.20;;;;;;;-0.48;100.00;98593.00;1223320;75;2921216;-71
2023/12/15 06:47:53;;;;;;;9.65;8.05;;;;;;;-0.63;100.00;98594.09;1221858;75;2988570;-70
2023/12/15 06:50:25;;;;;;;9.55;8.10;;;;;;;-0.91;100.00;98612.41;1222947;75;2925448;-69
2023/12/15 06:52:58;;;;;;;11.95;9.50;;;;;;;-0.88;100.00;98627.78;1222536;75;2924314;-69
2023/12/15 06:55:35;;;;;;;10.00;8.25;;;;;;;-0.74;100.00;98635.16;1222567;75;2928513;-70
2023/12/15 06:58:08;;;;;;;9.65;8.15;;;;;;;-0.68;100.00;98649.00;1223231;75;2923624;-69
2023/12/15 07:00:43;;;;;;;8.15;7.20;;;;;;;-0.41;100.00;98646.06;1222990;75;2939346;-70
2023/12/15 07:03:15;;;;;;;8.75;7.35;;;;;;;-0.37;100.00;98650.31;1223980;75;2938846;-68
2023/12/15 07:05:48;;;;;;;7.90;6.20;;;;;;;-0.28;100.00;98650.75;1221493;75;2998346;-71
2023/12/15 07:08:21;;;;;;;6.90;5.65;;;;;;;-0.19;100.00;98665.75;1222823;75;2939111;-70
2023/12/15 07:10:54;;;;;;;6.70;5.80;;;;;;;-0.18;100.00;98670.78;1223914;75;2927702;-69
2023/12/15 07:13:26;;;;;;;5.80;5.20;;;;;;;-0.06;100.00;98675.03;1222869;75;2923228;-69
2023/12/15 07:16:02;;;;;;;5.85;4.40;;;;;;;0.02;100.00;98682.00;1221563;75;2925098;-68
2023/12/15 07:18:35;;;;;;;6.00;5.00;;;;;;;-0.17;100.00;98680.38;1224295;75;2917020;-68
2023/12/15 07:21:09;;;;;;;5.25;4.15;;;;;;;0.03;100.00;98685.47;1222336;75;2925563;-70
2023/12/15 07:23:41;;;;;;;6.00;4.95;;;;;;;0.03;100.00;98697.00;1222735;75;2919762;-67
2023/12/15 07:26:15;;;;;;;5.15;4.45;;;;;;;0.16;100.00;98705.50;1223214;75;2941027;-69
2023/12/15 07:28:47;;;;;;;5.50;4.90;;;;;;;0.30;100.00;98720.94;1222708;75;2929241;-69
2023/12/15 07:31:22;;;;;;;6.80;5.90;;;;;;;0.35;100.00;98723.25;1222595;75;2934905;-67
2023/12/15 07:33:55;;;;;;;11.50;9.30;;;;;;;0.14;100.00;98716.63;1223422;75;2927476;-68
2023/12/15 07:36:28;;;;;;;11.65;9.05;;;;;;;0.39;100.00;98724.06;1221880;75;2935958;-68
2023/12/15 07:39:00;;;;;;;9.00;7.55;;;;;;;0.64;100.00;98732.19;1222776;75;2924937;-67
2023/12/15 07:41:33;;;;;;;7.80;6.50;;;;;;;1.12;100.00;98725.69;1222778;75;2929377;-70
2023/12/15 07:44:06;;;;;;;7.35;6.15;;;;;;;1.68;100.00;98727.53;1222493;75;2921970;-67
2023/12/15 07:46:41;;;;;;;6.35;5.50;;;;;;;2.18;100.00;98732.00;1222240;75;2919767;-70
2023/12/15 07:49:14;;;;;;;6.85;5.70;;;;;;;2.52;100.00;98737.59;1223676;75;2920578;-68
2023/12/15 07:51:49;;;;;;;9.40;7.50;;;;;;;1.84;100.00;98731.72;1222708;75;2920026;-71
2023/12/15 07:54:21;;;;;;;8.80;7.90;;;;;;;1.45;100.00;98733.34;1222565;75;2932088;-70
2023/12/15 07:56:51;;;;;;;8.15;7.30;;;;;;;1.86;100.00;98748.31;1224480;75;2917713;-69
2023/12/15 07:59:24;;;;;;;7.60;6.80;;;;;;;1.47;100.00;98752.63;1223809;75;2835236;-66
2023/12/15 08:01:59;;;;;;;6.95;6.20;;;;;;;1.92;100.00;98750.22;1223572;75;2922082;-71
2023/12/15 08:04:32;;;;;;;8.00;6.80;;;;;;;1.84;100.00;98750.63;1221672;75;2919520;-70
2023/12/15 08:07:05;;;;;;;12.80;8.75;;;;;;;1.60;100.00;98768.41;1195241;75;5209279;-69
2023/12/15 08:09:41;;;;;;;9.55;7.65;;;;;;;2.35;100.00;98766.25;1223158;75;2930486;-68
2023/12/15 08:12:16;;;;;;;8.35;6.85;;;;;;;2.22;100.00;98764.41;1223738;75;2919936;-67
2023/12/15 08:14:49;;;;;;;11.05;7.65;;;;;;;2.37;100.00;98773.97;1222909;75;2933049;-72
2023/12/15 08:17:25;;;;;;;7.55;6.50;;;;;;;2.72;100.00;98783.09;1223908;75;2927086;-70
2023/12/15 08:19:59;;;;;;;7.80;6.10;;;;;;;2.43;100.00;98793.25;1188711;75;5693968;-68
2023/12/15 08:22:32;;;;;;;10.15;7.25;;;;;;;1.83;100.00;98790.38;1190415;75;5579229;-69
2023/12/15 08:25:04;;;;;;;7.85;6.65;;;;;;;2.11;100.00;98800.31;1223351;75;2925025;-69
2023/12/15 08:27:39;;;;;;;9.00;7.80;;;;;;;2.18;100.00;98796.81;1222374;75;2925473;-70
2023/12/15 08:30:14;;;;;;;11.40;9.15;;;;;;;2.29;100.00;98805.69;1223676;75;2922020;-70
2023/12/15 08:32:49;;;;;;;11.20;8.45;;;;;;;2.30;100.00;98806.44;1223495;75;2926493;-70
2023/12/15 08:35:22;;;;;;;10.00;7.70;;;;;;;2.07;100.00;98821.19;1222262;75;2929611;-70
2023/12/15 08:37:54;;;;;;;10.60;8.55;;;;;;;1.87;100.00;98822.75;1220793;75;2919039;-71
2023/12/15 08:40:27;;;;;;;15.35;12.65;;;;;;;2.09;100.00;98813.47;1223662;75;2921017;-70
2023/12/15 08:43:00;;;;;;;10.70;8.40;;;;;;;2.56;100.00;98832.22;1222389;75;2949112;-71
2023/12/15 08:45:32;;;;;;;8.40;6.95;;;;;;;2.25;100.00;98837.31;1223612;75;2926726;-70
2023/12/15 08:48:08;;;;;;;8.00;6.40;;;;;;;2.32;100.00;98848.13;1221663;75;2935753;-70
2023/12/15 08:50:41;;;;;;;9.45;7.75;;;;;;;2.63;100.00;98842.22;1221878;75;2924207;-70
2023/12/15 08:53:15;;;;;;;8.15;7.00;;;;;;;2.67;100.00;98857.28;1223276;75;2924963;-68
2023/12/15 08:55:48;;;;;;;17.70;14.25;;;;;;;2.19;100.00;98871.31;1223298;75;2920826;-70
2023/12/15 08:58:22;;;;;;;15.50;11.85;;;;;;;2.85;100.00;98856.41;1222516;75;2923473;-69
2023/12/15 09:00:54;;;;;;;11.70;8.85;;;;;;;3.07;100.00;98876.00;1224339;75;2926566;-69
2023/12/15 09:03:29;;;;;;;15.55;10.35;;;;;;;3.17;100.00;98883.28;1222650;75;2926250;-67
2023/12/15 09:06:02;;;;;;;9.60;7.55;;;;;;;3.83;100.00;98880.50;1223334;75;2922861;-71
2023/12/15 09:08:35;;;;;;;8.95;6.70;;;;;;;4.77;100.00;98874.91;1223489;75;2940288;-68
2023/12/15 09:11:08;;;;;;;9.35;6.90;;;;;;;4.22;100.00;98889.47;1222754;75;2922483;-68
2023/12/15 09:13:40;;;;;;;17.15;11.50;;;;;;;4.57;100.00;98907.31;1222279;75;2921577;-66
2023/12/15 09:16:13;;;;;;;7.80;5.90;;;;;;;5.15;100.00;98903.88;1222563;75;2923487;-70
2023/12/15 09:18:48;;;;;;;7.90;6.35;;;;;;;5.57;100.00;98896.31;1222279;75;2935480;-68
2023/12/15 09:21:21;;;;;;;9.05;6.10;;;;;;;4.72;100.00;98896.31;1222525;75;2924887;-67
2023/12/15 09:23:56;;;;;;;9.45;6.10;;;;;;;4.65;100.00;98911.47;1223005;83;2920276;-71
2023/12/15 09:26:29;;;;;;;6.15;4.65;;;;;;;5.75;100.00;98902.25;1223686;75;2923299;-72
2023/12/15 09:29:01;;;;;;;5.50;4.35;;;;;;;7.04;100.00;98906.13;1224041;75;2927210;-70
2023/12/15 09:31:34;;;;;;;5.20;4.05;;;;;;;7.70;100.00;98900.81;1211130;75;3917843;-69
2023/12/15 09:34:10;;;;;;;5.10;4.00;;;;;;;8.74;86.24;98906.38;1223721;75;2920847;-71
2023/12/15 09:36:42;;;;;;;6.95;5.50;;;;;;;9.04;84.35;98915.28;1222987;75;2922478;-70
2023/12/15 09:39:15;;;;;;;5.50;4.30;;;;;;;10.10;79.39;98913.22;1224258;75;2925908;-70
2023/12/15 09:41:48;;;;;;;7.00;4.80;;;;;;;10.86;74.93;98914.91;1223643;75;2923973;-71
2023/12/15 09:44:23;;;;;;;5.10;4.00;;;;;;;11.74;71.54;98911.22;1223257;75;2923909;-70
2023/12/15 09:46:57;;;;;;;4.90;3.85;;;;;;;12.72;65.69;98908.75;1224956;75;2920986;-74
2023/12/15 09:49:36;;;;;;;5.15;3.80;;;;;;;13.20;63.49;98909.75;1222974;75;2923263;-70
2023/12/15 09:52:10;;;;;;;7.70;3.90;;;;;;;13.09;65.45;98914.97;1223356;75;2924274;-69
2023/12/15 09:54:44;;;;;;;4.25;2.90;;;;;;;12.87;62.71;98909.66;1223021;75;2959355;-73
2023/12/15 09:57:18;;;;;;;2.05;1.50;;;;;;;10.68;62.78;98909.31;1222314;75;2940943;-71
2023/12/15 09:59:51;;;;;;;1.65;0.90;;;;;;;8.87;57.23;98914.59;1222646;75;2923352;-73
2023/12/15 10:02:23;;;;;;;3.05;0.50;;;;;;;9.67;56.33;98916.53;1223141;75;2927508;-71
2023/12/15 10:04:58;;;;;;;0.80;0.80;;;;;;;8.95;55.47;98915.94;1224311;75;2929190;-71
2023/12/15 10:07:31;;;;;;;2.50;0.60;;;;;;;9.09;55.41;98922.94;1222647;75;2925735;-69
2023/12/15 10:10:04;;;;;;;1.45;0.80;;;;;;;9.43;55.91;98924.31;1223630;75;2923245;-69
2023/12/15 10:12:39;;;;;;;1.75;1.05;;;;;;;9.41;53.62;98922.03;1220103;75;2926778;-74
2023/12/15 10:15:13;;;;;;;1.30;1.00;;;;;;;9.72;52.41;98924.97;1224077;75;2923918;-72
2023/12/15 10:17:46;;;;;;;1.70;1.15;;;;;;;7.90;55.42;98920.56;1223956;75;2923285;-71
2023/12/15 10:20:21;;;;;;;1.20;0.70;;;;;;;8.20;55.57;98926.88;1224146;75;2932104;-73
2023/12/15 10:23:05;;;;;;;0.30;0.30;;;;;;;8.92;51.20;98922.25;1220256;75;2928888;-70
2023/12/15 10:25:38;;;;;;;0.95;0.60;;;;;;;9.15;51.82;98921.97;1222198;75;2910036;-71
2023/12/15 10:28:10;;;;;;;1.00;0.75;;;;;;;8.85;53.70;98925.97;1221074;75;2928081;-69
2023/12/15 10:30:43;;;;;;;0.80;0.40;;;;;;;8.43;53.09;98936.06;1223982;75;2894816;-71
2023/12/15 10:33:19;;;;;;;2.40;0.60;;;;;;;7.99;53.86;98949.97;1224579;75;2923049;-70
2023/12/15 10:35:55;;;;;;;0.70;0.55;;;;;;;9.71;52.59;98950.78;1224289;83;2933537;-71
2023/12/15 10:38:28;;;;;;;2.75;0.70;;;;;;;9.78;51.19;98939.63;1222800;75;2923648;-69
2023/12/15 10:41:01;;;;;;;1.45;0.50;;;;;;;10.88;48.47;98941.88;1222628;75;2929903;-70
2023/12/15 10:43:35;;;;;;;3.20;1.00;;;;;;;12.40;47.11;98951.34;1222304;75;2924622;-69
2023/12/15 10:46:10;;;;;;;1.45;0.55;;;;;;;12.49;45.04;98937.63;1223219;75;2920901;-71
2023/12/15 10:48:45;;;;;;;0.50;0.40;;;;;;;11.81;44.68;98952.09;1222310;75;2923218;-71
2023/12/15 10:51:21;;;;;;;0.95;0.60;;;;;;;14.95;42.70;98963.06;1221798;75;2934446;-70
2023/12/15 10:53:54;;;;;;;0.80;0.45;;;;;;;13.70;41.91;98953.44;1223305;75;2928457;-68
2023/12/15 10:56:27;;;;;;;0.50;0.45;;;;;;;13.13;41.55;98967.81;1222017;75;2921348;-72
2023/12/15 10:59:00;;;;;;;1.40;0.60;;;;;;;12.70;42.48;98969.69;1054026;75;11617752;-67
2023/12/15 11:01:38;;;;;;;1.00;0.60;;;;;;;8.98;49.67;98966.22;1223437;75;2929619;-74
2023/12/15 11:04:23;;;;;;;1.00;0.60;;;;;;;8.03;49.52;98977.16;1222210;75;2934419;-70
2023/12/15 11:06:58;;;;;;;2.05;0.65;;;;;;;7.52;51.14;98979.47;1221649;75;2932362;-69
2023/12/15 11:09:33;;;;;;;0.60;0.40;;;;;;;7.21;50.30;98980.47;1222204;75;2924937;-69
2023/12/15 11:12:32;;;;;;;2.85;0.80;;;;;;;6.79;51.58;98996.47;1220368;75;3026307;-70
2023/12/15 11:15:07;;;;;;;0.50;0.50;;;;;;;6.69;51.94;99002.13;1224503;75;2928695;-69
2023/12/15 11:17:44;;;;;;;2.60;0.60;;;;;;;6.34;52.76;99001.53;1222641;75;2930171;-72
2023/12/15 11:20:44;;;;;;;0.60;0.50;;;;;;;6.41;52.47;99006.84;1224192;75;2928573;-73
2023/12/15 11:23:19;;;;;;;0.60;0.60;;;;;;;6.22;53.58;98996.69;1223642;75;2921572;-71
2023/12/15 11:26:03;;;;;;;3.60;0.80;;;;;;;6.40;55.05;99006.09;1224549;75;2925262;-70
2023/12/15 11:28:35;;;;;;;4.50;0.90;;;;;;;6.20;53.78;99005.25;1222950;75;2926404;-71
2023/12/15 11:31:28;;;;;;;0.80;0.70;;;;;;;5.97;54.36;99014.91;1223257;75;2923972;-70
2023/12/15 11:34:01;;;;;;;0.75;0.75;;;;;;;5.92;55.41;99015.34;1223365;75;2927716;-67
2023/12/15 11:36:44;;;;;;;0.60;0.60;;;;;;;8.97;48.51;99009.13;1222179;83;2922178;-71
2023/12/15 11:39:20;;;;;;;1.20;0.80;;;;;;;7.95;51.11;99016.69;1222760;75;2928852;-74
2023/12/15 11:41:53;;;;;;;0.90;0.60;;;;;;;9.44;46.60;99016.81;1223686;75;2920841;-70
2023/12/15 11:44:27;;;;;;;2.70;0.60;;;;;;;9.87;45.69;99010.06;1222067;75;2986306;-68